createdAt,value
2022-12-17T00:01:56.828Z,102150.03
2022-12-17T00:04:43.349Z,102153.91
2022-12-17T00:07:30.037Z,102146.19
2022-12-17T00:10:16.758Z,102150.25
2022-12-17T00:13:05.735Z,102155.81
2022-12-17T00:15:52.823Z,102147.28
2022-12-17T00:18:39.918Z,102148.31
2022-12-17T00:21:29.699Z,102148.59
2022-12-17T00:24:16.472Z,102147.97
2022-12-17T00:27:02.990Z,102149.06
2022-12-17T00:29:49.741Z,102150.19
2022-12-17T00:32:36.386Z,102155.75
2022-12-17T00:35:23.198Z,102150.66
2022-12-17T00:38:09.788Z,102141.16
2022-12-17T00:40:56.373Z,102148.47
2022-12-17T00:43:43.548Z,102153.00
2022-12-17T00:46:30.658Z,102156.66
2022-12-17T00:49:17.052Z,102143.44
2022-12-17T00:52:03.817Z,102136.47
2022-12-17T00:54:50.351Z,102134.81
2022-12-17T00:57:36.820Z,102141.16
2022-12-17T01:00:24.821Z,102135.97
2022-12-17T01:03:11.808Z,102131.66
2022-12-17T01:05:58.511Z,102129.13
2022-12-17T01:08:45.029Z,102124.88
2022-12-17T01:11:31.553Z,102131.28
2022-12-17T01:14:18.501Z,102121.84
2022-12-17T01:17:06.006Z,102125.63
2022-12-17T01:19:58.015Z,102113.47
2022-12-17T01:22:44.386Z,102129.72
2022-12-17T01:25:30.958Z,102126.56
2022-12-17T01:28:17.485Z,102135.06
2022-12-17T01:31:06.937Z,102139.19
2022-12-17T01:33:54.081Z,102133.28
2022-12-17T01:36:48.261Z,102130.81
2022-12-17T01:39:34.993Z,102138.94
2022-12-17T01:42:30.583Z,102138.19
2022-12-17T01:45:20.276Z,102140.25
2022-12-17T01:48:28.525Z,102142.22
2022-12-17T02:11:12.172Z,102123.97
2022-12-17T02:14:34.647Z,102125.34
2022-12-17T02:17:25.468Z,102133.59
2022-12-17T02:21:07.321Z,102131.13
2022-12-17T02:24:48.535Z,102139.44
2022-12-17T02:39:38.197Z,102152.66
2022-12-17T02:42:32.330Z,102152.13
2022-12-17T03:22:38.720Z,102191.34
2022-12-17T03:53:05.917Z,102214.16
2022-12-17T03:56:02.926Z,102212.66
2022-12-17T04:02:38.928Z,102219.13
2022-12-17T04:05:26.310Z,102220.16
2022-12-17T04:08:25.239Z,102220.91
2022-12-17T04:11:15.937Z,102221.72
2022-12-17T04:14:03.392Z,102227.13
2022-12-17T04:16:49.838Z,102227.84
2022-12-17T04:19:36.535Z,102222.59
2022-12-17T04:22:22.920Z,102228.34
2022-12-17T04:25:09.765Z,102226.31
2022-12-17T04:27:56.270Z,102232.19
2022-12-17T04:30:42.971Z,102226.06
2022-12-17T04:33:29.587Z,102232.56
2022-12-17T04:36:16.253Z,102229.47
2022-12-17T04:39:02.722Z,102230.97
2022-12-17T04:41:49.339Z,102232.19
2022-12-17T04:44:36.065Z,102230.75
2022-12-17T04:47:22.981Z,102230.09
2022-12-17T04:50:09.409Z,102223.88
2022-12-17T04:52:56.091Z,102227.97
2022-12-17T04:55:42.987Z,102223.72
2022-12-17T04:58:29.680Z,102226.13
2022-12-17T05:01:16.675Z,102232.56
2022-12-17T05:04:03.648Z,102224.63
2022-12-17T05:06:50.298Z,102228.28
2022-12-17T05:09:36.954Z,102232.47
2022-12-17T05:12:23.767Z,102237.13
2022-12-17T05:15:10.254Z,102236.88
2022-12-17T05:17:56.784Z,102243.38
2022-12-17T05:20:43.275Z,102239.22
2022-12-17T05:23:29.600Z,102245.16
2022-12-17T05:26:33.463Z,102243.41
2022-12-17T05:29:20.177Z,102238.44
2022-12-17T05:32:07.934Z,102239.22
2022-12-17T05:34:54.408Z,102239.53
2022-12-17T05:37:41.474Z,102233.84
2022-12-17T05:40:29.154Z,102234.19
2022-12-17T05:43:20.975Z,102234.91
2022-12-17T05:46:08.001Z,102231.28
2022-12-17T05:48:55.241Z,102229.50
2022-12-17T05:51:42.460Z,102229.44
2022-12-17T05:54:29.317Z,102228.28
2022-12-17T05:57:15.834Z,102220.81
2022-12-17T06:00:02.234Z,102228.16
2022-12-17T06:02:48.741Z,102221.38
2022-12-17T06:05:35.244Z,102227.66
2022-12-17T06:08:24.157Z,102224.91
2022-12-17T06:11:11.198Z,102223.56
2022-12-17T06:13:57.654Z,102221.06
2022-12-17T06:16:44.401Z,102217.94
2022-12-17T06:19:30.756Z,102218.06
2022-12-17T06:22:17.126Z,102224.44
2022-12-17T06:25:03.681Z,102229.88
2022-12-17T06:27:50.392Z,102231.63
2022-12-17T06:30:36.967Z,102229.06
2022-12-17T06:33:28.516Z,102227.28
2022-12-17T06:36:22.121Z,102232.38
2022-12-17T06:39:09.774Z,102235.13
2022-12-17T06:42:04.626Z,102238.75
2022-12-17T06:44:52.358Z,102236.84
2022-12-17T06:47:39.105Z,102239.09
2022-12-17T06:50:26.339Z,102227.97
2022-12-17T06:53:20.910Z,102235.28
2022-12-17T06:56:07.563Z,102229.53
2022-12-17T06:58:54.140Z,102223.63
2022-12-17T07:01:40.992Z,102220.00
2022-12-17T07:04:27.757Z,102222.50
2022-12-17T07:07:14.253Z,102229.75
2022-12-17T07:10:00.656Z,102218.53
2022-12-17T07:12:47.512Z,102226.38
2022-12-17T07:15:34.094Z,102222.28
2022-12-17T07:18:23.182Z,102219.00
2022-12-17T07:21:13.289Z,102223.13
2022-12-17T07:23:59.920Z,102226.22
2022-12-17T07:26:46.457Z,102219.66
2022-12-17T07:29:33.130Z,102217.25
2022-12-17T07:32:19.601Z,102212.16
2022-12-17T07:35:06.057Z,102224.75
2022-12-17T07:37:52.422Z,102220.56
2022-12-17T07:40:39.266Z,102216.25
2022-12-17T07:43:36.348Z,102214.47
2022-12-17T07:46:23.960Z,102212.38
2022-12-17T07:49:10.691Z,102207.63
2022-12-17T07:51:57.215Z,102209.06
2022-12-17T07:54:43.895Z,102206.31
2022-12-17T07:57:30.498Z,102207.81
2022-12-17T08:00:19.353Z,102204.53
2022-12-17T08:03:06.114Z,102210.25
2022-12-17T08:05:52.979Z,102212.56
2022-12-17T08:08:39.946Z,102210.69
2022-12-17T08:11:26.321Z,102210.09
2022-12-17T08:14:12.924Z,102200.97
2022-12-17T08:16:59.422Z,102201.28
2022-12-17T08:19:46.081Z,102201.63
2022-12-17T08:22:32.607Z,102197.53
2022-12-17T08:25:19.221Z,102196.56
2022-12-17T08:28:11.191Z,102199.13
2022-12-17T08:31:03.084Z,102194.97
2022-12-17T08:33:49.477Z,102192.28
2022-12-17T08:36:36.004Z,102188.78
2022-12-17T08:39:23.059Z,102182.44
2022-12-17T08:42:09.473Z,102183.59
2022-12-17T08:44:55.984Z,102182.53
2022-12-17T08:47:43.915Z,102181.34
2022-12-17T08:50:30.237Z,102184.41
2022-12-17T08:53:21.578Z,102179.69
2022-12-17T08:56:08.436Z,102182.41
2022-12-17T08:58:59.057Z,102182.25
2022-12-17T09:01:46.260Z,102179.13
2022-12-17T09:04:33.068Z,102176.19
2022-12-17T09:07:19.470Z,102182.16
2022-12-17T09:10:06.232Z,102174.66
2022-12-17T09:12:52.913Z,102175.88
2022-12-17T09:15:39.637Z,102171.59
2022-12-17T09:18:26.147Z,102179.63
2022-12-17T09:21:14.167Z,102173.59
2022-12-17T09:24:00.866Z,102171.25
2022-12-17T09:26:47.487Z,102156.88
2022-12-17T09:29:34.175Z,102172.22
2022-12-17T09:32:20.869Z,102169.84
2022-12-17T09:35:07.366Z,102173.59
2022-12-17T09:37:54.075Z,102176.41
2022-12-17T09:40:44.565Z,102180.13
2022-12-17T09:43:47.810Z,102170.34
2022-12-17T09:46:43.998Z,102178.28
2022-12-17T09:49:45.504Z,102174.84
2022-12-17T09:52:44.570Z,102169.44
2022-12-17T09:56:01.686Z,102173.94
2022-12-17T09:58:50.113Z,102178.63
2022-12-17T10:01:45.104Z,102168.84
2022-12-17T10:04:40.306Z,102165.09
2022-12-17T10:07:34.754Z,102165.25
2022-12-17T10:10:33.366Z,102156.66
2022-12-17T10:13:20.101Z,102166.50
2022-12-17T10:16:06.532Z,102169.78
2022-12-17T10:18:53.135Z,102165.75
2022-12-17T10:21:43.751Z,102158.41
2022-12-17T10:24:30.958Z,102162.75
2022-12-17T10:27:17.821Z,102171.13
2022-12-17T10:30:04.989Z,102164.44
2022-12-17T10:32:51.600Z,102165.19
2022-12-17T10:35:41.259Z,102160.69
2022-12-17T10:38:43.589Z,102166.16
2022-12-17T10:41:40.561Z,102167.31
2022-12-17T10:44:44.843Z,102162.19
2022-12-17T10:47:33.708Z,102168.31
2022-12-17T10:50:41.767Z,102166.38
2022-12-17T10:53:43.557Z,102172.44
2022-12-17T10:56:46.263Z,102165.69
2022-12-17T10:59:44.415Z,102164.31
2022-12-17T11:02:42.009Z,102168.03
2022-12-17T11:05:43.110Z,102166.47
2022-12-17T11:08:46.626Z,102161.31
2022-12-17T11:11:35.341Z,102169.28
2022-12-17T11:14:26.269Z,102159.63
2022-12-17T11:17:22.226Z,102151.72
2022-12-17T11:20:16.075Z,102156.06
2022-12-17T11:23:17.748Z,102155.06
2022-12-17T11:26:10.320Z,102149.00
2022-12-17T11:28:56.779Z,102148.09
2022-12-17T11:32:07.831Z,102151.16
2022-12-17T11:35:12.818Z,102151.06
2022-12-17T11:38:19.603Z,102152.09
2022-12-17T11:41:30.779Z,102144.16
2022-12-17T11:44:37.785Z,102149.34
2022-12-17T11:47:45.830Z,102142.31
2022-12-17T11:50:52.267Z,102144.25
2022-12-17T11:53:56.866Z,102141.53
2022-12-17T11:56:47.028Z,102149.28
2022-12-17T11:59:53.303Z,102142.44
2022-12-17T12:03:18.697Z,102139.69
2022-12-17T12:06:13.172Z,102146.63
2022-12-17T12:08:59.396Z,102142.44
2022-12-17T12:11:54.668Z,102136.53
2022-12-17T12:15:03.700Z,102134.06
2022-12-17T12:18:28.024Z,102140.16
2022-12-17T12:21:36.692Z,102131.09
2022-12-17T12:24:44.366Z,102130.13
2022-12-17T12:27:56.583Z,102131.22
2022-12-17T12:30:52.757Z,102132.22
2022-12-17T12:33:52.801Z,102127.00
2022-12-17T12:36:40.510Z,102121.97
2022-12-17T12:39:32.355Z,102121.06
2022-12-17T12:42:26.532Z,102128.06
2022-12-17T12:45:29.570Z,102121.38
2022-12-17T12:48:37.007Z,102121.91
2022-12-17T12:51:34.870Z,102118.50
2022-12-17T12:54:40.262Z,102117.94
2022-12-17T12:57:53.370Z,102110.31
2022-12-17T13:01:14.185Z,102110.47
2022-12-17T13:04:13.138Z,102107.00
2022-12-17T13:06:56.956Z,102100.13
2022-12-17T13:09:48.593Z,102103.69
2022-12-17T13:12:25.820Z,102096.63
2022-12-17T13:15:18.387Z,102102.69
2022-12-17T13:17:58.891Z,102107.72
2022-12-17T13:20:35.820Z,102105.63
2022-12-17T13:23:12.805Z,102102.94
2022-12-17T13:25:41.174Z,102102.00
2022-12-17T13:28:35.882Z,102107.47
2022-12-17T13:31:15.749Z,102111.09
2022-12-17T13:33:56.253Z,102106.81
2022-12-17T13:36:39.743Z,102105.31
2022-12-17T13:39:30.752Z,102109.63
2022-12-17T13:41:59.106Z,102109.22
2022-12-17T13:44:32.713Z,102113.53
2022-12-17T13:47:01.834Z,102111.81
2022-12-17T13:49:31.633Z,102115.03
2022-12-17T13:52:22.264Z,102117.53
2022-12-17T13:54:50.578Z,102110.50
2022-12-17T13:57:27.024Z,102113.31
2022-12-17T13:59:58.251Z,102112.81
2022-12-17T14:02:40.012Z,102109.69
2022-12-17T14:05:29.088Z,102117.91
2022-12-17T14:08:02.199Z,102121.50
2022-12-17T14:10:31.324Z,102129.19
2022-12-17T14:13:18.952Z,102134.25
2022-12-17T14:15:51.716Z,102136.78
2022-12-17T14:18:22.505Z,102136.09
2022-12-17T14:20:59.458Z,102130.91
2022-12-17T14:23:31.652Z,102130.91
2022-12-17T14:26:00.754Z,102135.25
2022-12-17T14:29:45.179Z,102136.16
2022-12-17T14:42:08.620Z,102152.03
2022-12-17T14:51:07.451Z,102146.25
2022-12-17T14:53:39.098Z,102148.00
2022-12-17T14:56:37.428Z,102149.84
2022-12-17T14:59:38.873Z,102152.34
2022-12-17T15:02:37.506Z,102152.19
2022-12-17T15:05:37.681Z,102147.97
2022-12-17T15:08:02.253Z,102148.97
2022-12-17T15:10:41.143Z,102149.00
2022-12-17T15:13:15.218Z,102149.03
2022-12-17T15:15:43.589Z,102143.75
2022-12-17T15:18:38.809Z,102151.56
2022-12-17T15:25:57.400Z,102142.75
2022-12-17T15:28:30.263Z,102138.41
2022-12-17T15:43:41.079Z,102145.28
2022-12-17T15:50:28.136Z,102140.69
2022-12-17T15:52:56.469Z,102148.56
2022-12-17T16:02:50.009Z,102152.59
2022-12-17T16:05:39.308Z,102154.03
2022-12-17T16:27:39.577Z,102160.06
2022-12-17T16:30:36.439Z,102160.41
2022-12-17T16:33:10.690Z,102160.00
2022-12-17T16:35:38.928Z,102165.72
2022-12-17T16:38:10.664Z,102155.50
2022-12-17T16:40:39.056Z,102163.84
2022-12-17T16:43:07.762Z,102157.16
2022-12-17T16:48:08.869Z,102163.88
2022-12-17T16:50:37.692Z,102157.00
2022-12-17T16:53:06.387Z,102168.81
2022-12-17T16:55:35.517Z,102169.22
2022-12-17T16:58:03.843Z,102167.84
2022-12-17T17:00:35.187Z,102164.63
2022-12-17T17:03:04.199Z,102160.50
2022-12-17T17:05:45.114Z,102170.47
2022-12-17T17:11:15.170Z,102170.13
2022-12-17T17:13:45.286Z,102176.25
2022-12-17T17:16:17.196Z,102171.84
2022-12-17T17:18:45.647Z,102169.16
2022-12-17T17:21:29.091Z,102166.25
2022-12-17T17:28:42.850Z,102174.19
2022-12-17T17:31:16.822Z,102174.91
2022-12-17T17:33:49.638Z,102174.25
2022-12-17T17:36:32.414Z,102174.53
2022-12-17T17:39:03.023Z,102183.25
2022-12-17T17:41:33.413Z,102178.56
2022-12-17T17:44:07.626Z,102177.13
2022-12-17T17:46:39.088Z,102175.59
2022-12-17T17:49:14.521Z,102176.41
2022-12-17T17:54:40.360Z,102167.25
2022-12-17T17:57:09.439Z,102172.94
2022-12-17T17:59:40.634Z,102171.94
2022-12-17T18:02:12.502Z,102168.50
2022-12-17T18:05:11.491Z,102165.13
2022-12-17T18:07:41.423Z,102170.13
2022-12-17T18:10:10.315Z,102168.34
2022-12-17T18:12:57.132Z,102167.06
2022-12-17T18:15:35.632Z,102162.66
2022-12-17T18:18:14.325Z,102169.53
2022-12-17T18:35:14.584Z,102166.19
2022-12-17T18:37:53.457Z,102173.72
2022-12-17T18:59:58.754Z,102144.66
2022-12-17T19:02:27.497Z,102140.69
2022-12-17T19:04:55.989Z,102136.16
2022-12-17T19:07:28.253Z,102139.22
2022-12-17T19:09:56.707Z,102126.13
2022-12-17T19:12:26.821Z,102126.69
2022-12-17T19:14:55.169Z,102118.66
2022-12-17T19:17:23.477Z,102118.66
2022-12-17T19:19:53.585Z,102101.91
2022-12-17T19:22:24.977Z,102098.81
2022-12-17T19:25:13.377Z,102080.47
2022-12-17T19:27:44.938Z,102092.69
2022-12-17T19:30:13.558Z,102085.72
2022-12-17T19:32:41.841Z,102079.63
2022-12-17T19:35:13.226Z,102077.50
2022-12-17T19:37:44.726Z,102075.13
2022-12-17T19:57:46.597Z,102043.50
2022-12-17T20:00:53.441Z,102037.50
2022-12-17T20:14:52.054Z,102014.69
2022-12-17T20:20:15.286Z,101995.81
2022-12-17T20:22:43.744Z,101994.88
2022-12-17T20:25:12.290Z,101996.84
2022-12-17T20:27:44.923Z,101989.97
2022-12-17T20:30:13.424Z,101977.22
2022-12-17T20:32:44.350Z,101987.00
2022-12-17T20:35:15.210Z,101982.13
2022-12-17T20:37:43.452Z,101979.56
2022-12-17T20:40:14.342Z,101972.75
2022-12-17T20:42:43.907Z,101968.66
2022-12-17T20:45:14.679Z,101971.78
2022-12-17T20:47:46.003Z,101953.44
2022-12-17T20:50:13.905Z,101952.84
2022-12-17T20:52:44.701Z,101946.75
2022-12-17T20:55:16.214Z,101946.13
2022-12-17T20:57:44.700Z,101938.31
2022-12-17T21:00:13.427Z,101930.66
2022-12-17T21:02:44.729Z,101920.66
2022-12-17T21:05:16.085Z,101924.66
2022-12-17T21:07:43.871Z,101918.09
2022-12-17T21:10:15.068Z,101922.56
2022-12-17T21:13:04.659Z,101912.09
2022-12-17T21:15:33.790Z,101915.69
2022-12-17T21:18:02.656Z,101909.69
2022-12-17T21:20:31.462Z,101911.72
2022-12-17T21:23:01.443Z,101907.50
2022-12-17T21:25:30.272Z,101911.81
2022-12-17T21:27:58.503Z,101908.31
2022-12-17T21:30:27.739Z,101905.81
2022-12-17T21:32:56.451Z,101898.94
2022-12-17T21:35:29.119Z,101897.19
2022-12-17T21:37:57.409Z,101891.19
2022-12-17T21:40:26.966Z,101891.19
2022-12-17T21:43:04.415Z,101886.81
2022-12-17T21:46:16.280Z,101883.19
2022-12-17T21:48:54.754Z,101883.47
2022-12-17T21:51:23.756Z,101876.41
2022-12-17T21:54:19.774Z,101868.22
2022-12-17T21:57:30.717Z,101870.91
2022-12-17T22:00:31.948Z,101870.91
2022-12-17T22:03:06.877Z,101870.97
2022-12-17T22:06:18.484Z,101881.66
2022-12-17T22:09:29.944Z,101880.00
2022-12-17T22:19:29.889Z,101865.38
2022-12-17T22:21:59.376Z,101873.22
2022-12-17T22:24:27.789Z,101865.22
2022-12-17T22:27:01.671Z,101867.13
2022-12-17T22:29:48.748Z,101868.91
2022-12-17T22:32:35.237Z,101857.31
2022-12-17T22:36:42.243Z,101857.13
2022-12-17T22:42:31.689Z,101860.59
2022-12-17T22:44:34.690Z,101855.66
2022-12-17T22:44:42.467Z,101852.91
2022-12-17T22:46:23.260Z,101853.88
2022-12-17T22:48:51.842Z,101858.09
2022-12-17T22:51:36.130Z,101856.09
2022-12-17T22:54:08.072Z,101860.50
2022-12-17T22:57:31.280Z,101858.59
2022-12-17T22:59:27.400Z,101858.94
2022-12-17T23:01:55.970Z,101859.50
2022-12-17T23:04:24.312Z,101853.50
2022-12-17T23:06:52.943Z,101857.22
2022-12-17T23:09:21.421Z,101855.16
2022-12-17T23:11:50.333Z,101854.78
2022-12-17T23:14:19.124Z,101849.53
2022-12-17T23:16:47.610Z,101855.25
2022-12-17T23:19:19.937Z,101855.25
2022-12-17T23:21:48.857Z,101859.69
2022-12-17T23:26:51.497Z,101838.06
2022-12-17T23:29:19.906Z,101840.00
2022-12-17T23:31:48.813Z,101828.50
2022-12-17T23:50:26.557Z,101818.34
2022-12-17T23:59:53.147Z,101817.41
